sensor_id;sensor_type;location;lat;lon;timestamp;P1;durP1;ratioP1;P2;durP2;ratioP2
12625;SDS011;6378;42.684;23.372;2023-12-04T00:01:43;13.27;;;7.90;;
12625;SDS011;6378;42.684;23.372;2023-12-04T00:04:10;11.37;;;7.47;;
12625;SDS011;6378;42.684;23.372;2023-12-04T00:06:35;10.87;;;7.90;;
12625;SDS011;6378;42.684;23.372;2023-12-04T00:09:01;13.03;;;8.37;;
12625;SDS011;6378;42.684;23.372;2023-12-04T00:11:26;11.00;;;8.33;;
12625;SDS011;6378;42.684;23.372;2023-12-04T00:13:52;7.47;;;6.27;;
12625;SDS011;6378;42.684;23.372;2023-12-04T00:16:17;13.13;;;8.93;;
12625;SDS011;6378;42.684;23.372;2023-12-04T00:18:43;8.57;;;6.30;;
12625;SDS011;6378;42.684;23.372;2023-12-04T00:21:09;11.90;;;8.30;;
12625;SDS011;6378;42.684;23.372;2023-12-04T00:23:34;12.40;;;8.37;;
12625;SDS011;6378;42.684;23.372;2023-12-04T00:26:00;10.23;;;7.83;;
12625;SDS011;6378;42.684;23.372;2023-12-04T00:28:25;11.23;;;8.77;;
12625;SDS011;6378;42.684;23.372;2023-12-04T00:30:51;10.53;;;7.50;;
12625;SDS011;6378;42.684;23.372;2023-12-04T00:33:16;14.07;;;9.00;;
12625;SDS011;6378;42.684;23.372;2023-12-04T00:35:42;13.30;;;8.53;;
12625;SDS011;6378;42.684;23.372;2023-12-04T00:38:07;13.13;;;8.17;;
12625;SDS011;6378;42.684;23.372;2023-12-04T00:40:33;12.73;;;8.73;;
12625;SDS011;6378;42.684;23.372;2023-12-04T00:42:58;12.13;;;8.57;;
12625;SDS011;6378;42.684;23.372;2023-12-04T00:45:24;13.63;;;9.60;;
12625;SDS011;6378;42.684;23.372;2023-12-04T00:47:50;12.67;;;8.60;;
12625;SDS011;6378;42.684;23.372;2023-12-04T00:50:15;11.73;;;8.77;;
12625;SDS011;6378;42.684;23.372;2023-12-04T00:52:41;12.77;;;8.27;;
12625;SDS011;6378;42.684;23.372;2023-12-04T00:55:06;8.23;;;6.87;;
12625;SDS011;6378;42.684;23.372;2023-12-04T00:57:32;13.30;;;8.53;;
12625;SDS011;6378;42.684;23.372;2023-12-04T00:59:57;11.77;;;7.17;;
12625;SDS011;6378;42.684;23.372;2023-12-04T01:02:23;14.63;;;9.23;;
12625;SDS011;6378;42.684;23.372;2023-12-04T01:04:48;13.20;;;9.27;;
12625;SDS011;6378;42.684;23.372;2023-12-04T01:07:14;13.57;;;8.27;;
12625;SDS011;6378;42.684;23.372;2023-12-04T01:09:40;12.13;;;8.97;;
12625;SDS011;6378;42.684;23.372;2023-12-04T01:12:05;12.70;;;8.77;;
12625;SDS011;6378;42.684;23.372;2023-12-04T01:14:31;12.90;;;8.27;;
12625;SDS011;6378;42.684;23.372;2023-12-04T01:16:58;13.50;;;8.47;;
12625;SDS011;6378;42.684;23.372;2023-12-04T01:19:23;11.50;;;7.80;;
12625;SDS011;6378;42.684;23.372;2023-12-04T01:21:49;14.63;;;9.50;;
12625;SDS011;6378;42.684;23.372;2023-12-04T01:24:15;14.63;;;9.87;;
12625;SDS011;6378;42.684;23.372;2023-12-04T01:26:41;8.77;;;7.17;;
12625;SDS011;6378;42.684;23.372;2023-12-04T01:29:06;13.67;;;9.30;;
12625;SDS011;6378;42.684;23.372;2023-12-04T01:31:32;11.13;;;7.53;;
12625;SDS011;6378;42.684;23.372;2023-12-04T01:33:57;12.17;;;7.97;;
12625;SDS011;6378;42.684;23.372;2023-12-04T01:36:23;13.67;;;7.63;;
12625;SDS011;6378;42.684;23.372;2023-12-04T01:38:48;12.63;;;8.30;;
12625;SDS011;6378;42.684;23.372;2023-12-04T01:41:14;14.50;;;8.60;;
12625;SDS011;6378;42.684;23.372;2023-12-04T01:43:39;13.07;;;9.73;;
12625;SDS011;6378;42.684;23.372;2023-12-04T01:46:05;15.77;;;9.57;;
12625;SDS011;6378;42.684;23.372;2023-12-04T01:48:32;16.50;;;8.90;;
12625;SDS011;6378;42.684;23.372;2023-12-04T01:50:58;14.73;;;9.20;;
12625;SDS011;6378;42.684;23.372;2023-12-04T01:53:28;13.20;;;8.47;;
12625;SDS011;6378;42.684;23.372;2023-12-04T01:55:53;13.60;;;8.33;;
12625;SDS011;6378;42.684;23.372;2023-12-04T01:58:19;13.10;;;8.43;;
12625;SDS011;6378;42.684;23.372;2023-12-04T02:00:45;13.67;;;9.63;;
12625;SDS011;6378;42.684;23.372;2023-12-04T02:03:11;13.67;;;7.53;;
12625;SDS011;6378;42.684;23.372;2023-12-04T02:05:37;12.80;;;9.33;;
12625;SDS011;6378;42.684;23.372;2023-12-04T02:08:03;12.53;;;8.90;;
12625;SDS011;6378;42.684;23.372;2023-12-04T02:10:29;12.10;;;8.50;;
12625;SDS011;6378;42.684;23.372;2023-12-04T02:12:54;13.87;;;9.20;;
12625;SDS011;6378;42.684;23.372;2023-12-04T02:15:20;11.63;;;8.67;;
12625;SDS011;6378;42.684;23.372;2023-12-04T02:17:46;13.00;;;8.93;;
12625;SDS011;6378;42.684;23.372;2023-12-04T02:20:12;10.67;;;7.33;;
12625;SDS011;6378;42.684;23.372;2023-12-04T02:22:38;9.20;;;6.93;;
12625;SDS011;6378;42.684;23.372;2023-12-04T02:25:04;11.47;;;7.97;;
12625;SDS011;6378;42.684;23.372;2023-12-04T02:27:42;11.77;;;8.87;;
12625;SDS011;6378;42.684;23.372;2023-12-04T02:30:15;12.67;;;8.87;;
12625;SDS011;6378;42.684;23.372;2023-12-04T02:32:44;11.57;;;8.27;;
12625;SDS011;6378;42.684;23.372;2023-12-04T02:35:11;11.73;;;8.50;;
12625;SDS011;6378;42.684;23.372;2023-12-04T02:37:40;9.53;;;7.03;;
12625;SDS011;6378;42.684;23.372;2023-12-04T02:40:06;15.13;;;8.77;;
12625;SDS011;6378;42.684;23.372;2023-12-04T02:42:32;8.37;;;6.83;;
12625;SDS011;6378;42.684;23.372;2023-12-04T02:44:58;11.70;;;8.10;;
12625;SDS011;6378;42.684;23.372;2023-12-04T02:47:24;13.07;;;8.40;;
12625;SDS011;6378;42.684;23.372;2023-12-04T02:49:50;11.67;;;8.43;;
12625;SDS011;6378;42.684;23.372;2023-12-04T02:52:16;12.07;;;8.03;;
12625;SDS011;6378;42.684;23.372;2023-12-04T02:54:41;9.33;;;7.17;;
12625;SDS011;6378;42.684;23.372;2023-12-04T02:57:07;11.00;;;7.90;;
12625;SDS011;6378;42.684;23.372;2023-12-04T02:59:32;9.60;;;7.10;;
12625;SDS011;6378;42.684;23.372;2023-12-04T03:01:58;14.50;;;8.17;;
12625;SDS011;6378;42.684;23.372;2023-12-04T03:04:23;10.53;;;6.60;;
12625;SDS011;6378;42.684;23.372;2023-12-04T03:06:49;12.00;;;7.30;;
12625;SDS011;6378;42.684;23.372;2023-12-04T03:09:15;11.67;;;7.50;;
12625;SDS011;6378;42.684;23.372;2023-12-04T03:11:40;15.03;;;8.73;;
12625;SDS011;6378;42.684;23.372;2023-12-04T03:14:06;13.97;;;8.37;;
12625;SDS011;6378;42.684;23.372;2023-12-04T03:16:32;12.30;;;8.33;;
12625;SDS011;6378;42.684;23.372;2023-12-04T03:18:58;9.63;;;7.50;;
12625;SDS011;6378;42.684;23.372;2023-12-04T03:21:23;14.13;;;8.57;;
12625;SDS011;6378;42.684;23.372;2023-12-04T03:23:49;11.77;;;8.03;;
12625;SDS011;6378;42.684;23.372;2023-12-04T03:26:14;12.10;;;7.67;;
12625;SDS011;6378;42.684;23.372;2023-12-04T03:28:40;11.43;;;8.03;;
12625;SDS011;6378;42.684;23.372;2023-12-04T03:31:05;13.47;;;9.03;;
12625;SDS011;6378;42.684;23.372;2023-12-04T03:33:31;14.93;;;8.63;;
12625;SDS011;6378;42.684;23.372;2023-12-04T03:35:58;11.77;;;7.93;;
12625;SDS011;6378;42.684;23.372;2023-12-04T03:38:24;12.20;;;8.37;;
12625;SDS011;6378;42.684;23.372;2023-12-04T03:40:50;10.30;;;7.07;;
12625;SDS011;6378;42.684;23.372;2023-12-04T03:43:15;12.93;;;8.73;;
12625;SDS011;6378;42.684;23.372;2023-12-04T03:45:41;13.33;;;8.10;;
12625;SDS011;6378;42.684;23.372;2023-12-04T03:48:06;11.20;;;7.97;;
12625;SDS011;6378;42.684;23.372;2023-12-04T03:50:32;11.73;;;8.43;;
12625;SDS011;6378;42.684;23.372;2023-12-04T03:52:57;11.33;;;8.10;;
12625;SDS011;6378;42.684;23.372;2023-12-04T03:55:22;11.80;;;8.03;;
12625;SDS011;6378;42.684;23.372;2023-12-04T03:57:48;14.07;;;8.57;;
12625;SDS011;6378;42.684;23.372;2023-12-04T04:00:13;11.77;;;8.07;;
12625;SDS011;6378;42.684;23.372;2023-12-04T04:02:39;10.87;;;7.70;;
12625;SDS011;6378;42.684;23.372;2023-12-04T04:05:06;11.20;;;7.97;;
12625;SDS011;6378;42.684;23.372;2023-12-04T04:07:31;13.23;;;7.53;;
12625;SDS011;6378;42.684;23.372;2023-12-04T04:09:57;14.07;;;7.93;;
12625;SDS011;6378;42.684;23.372;2023-12-04T04:12:22;12.70;;;7.60;;
12625;SDS011;6378;42.684;23.372;2023-12-04T04:14:48;11.40;;;8.00;;
12625;SDS011;6378;42.684;23.372;2023-12-04T04:17:13;11.63;;;8.17;;
12625;SDS011;6378;42.684;23.372;2023-12-04T04:19:39;13.90;;;9.33;;
12625;SDS011;6378;42.684;23.372;2023-12-04T04:22:05;12.17;;;7.83;;
12625;SDS011;6378;42.684;23.372;2023-12-04T04:24:31;12.60;;;7.63;;
12625;SDS011;6378;42.684;23.372;2023-12-04T04:26:56;12.00;;;7.30;;
12625;SDS011;6378;42.684;23.372;2023-12-04T04:29:22;12.60;;;8.43;;
12625;SDS011;6378;42.684;23.372;2023-12-04T04:31:47;11.80;;;8.27;;
12625;SDS011;6378;42.684;23.372;2023-12-04T04:34:13;12.67;;;7.93;;
12625;SDS011;6378;42.684;23.372;2023-12-04T04:36:38;14.47;;;8.50;;
12625;SDS011;6378;42.684;23.372;2023-12-04T04:39:04;13.33;;;8.03;;
12625;SDS011;6378;42.684;23.372;2023-12-04T04:41:31;14.57;;;8.97;;
12625;SDS011;6378;42.684;23.372;2023-12-04T04:43:57;11.57;;;7.83;;
12625;SDS011;6378;42.684;23.372;2023-12-04T04:46:22;13.50;;;8.40;;
12625;SDS011;6378;42.684;23.372;2023-12-04T04:48:50;9.83;;;7.37;;
12625;SDS011;6378;42.684;23.372;2023-12-04T04:51:15;12.10;;;8.73;;
12625;SDS011;6378;42.684;23.372;2023-12-04T04:53:41;13.63;;;8.63;;
12625;SDS011;6378;42.684;23.372;2023-12-04T04:56:07;12.77;;;8.60;;
12625;SDS011;6378;42.684;23.372;2023-12-04T04:58:33;12.13;;;7.90;;
12625;SDS011;6378;42.684;23.372;2023-12-04T05:00:59;9.70;;;7.33;;
12625;SDS011;6378;42.684;23.372;2023-12-04T05:03:24;13.50;;;8.57;;
12625;SDS011;6378;42.684;23.372;2023-12-04T05:05:50;12.77;;;8.40;;
12625;SDS011;6378;42.684;23.372;2023-12-04T05:08:15;10.83;;;6.83;;
12625;SDS011;6378;42.684;23.372;2023-12-04T05:10:41;12.17;;;8.93;;
12625;SDS011;6378;42.684;23.372;2023-12-04T05:13:07;18.33;;;13.23;;
12625;SDS011;6378;42.684;23.372;2023-12-04T05:15:32;10.80;;;7.43;;
12625;SDS011;6378;42.684;23.372;2023-12-04T05:17:58;11.47;;;8.77;;
12625;SDS011;6378;42.684;23.372;2023-12-04T05:20:23;12.93;;;8.67;;
12625;SDS011;6378;42.684;23.372;2023-12-04T05:22:49;11.00;;;7.60;;
12625;SDS011;6378;42.684;23.372;2023-12-04T05:25:15;12.23;;;8.47;;
12625;SDS011;6378;42.684;23.372;2023-12-04T05:27:40;11.53;;;8.13;;
12625;SDS011;6378;42.684;23.372;2023-12-04T05:30:06;11.83;;;8.27;;
12625;SDS011;6378;42.684;23.372;2023-12-04T05:32:32;11.00;;;7.97;;
12625;SDS011;6378;42.684;23.372;2023-12-04T05:34:57;8.50;;;6.43;;
12625;SDS011;6378;42.684;23.372;2023-12-04T05:37:23;11.67;;;8.10;;
12625;SDS011;6378;42.684;23.372;2023-12-04T05:39:49;10.83;;;7.97;;
12625;SDS011;6378;42.684;23.372;2023-12-04T05:42:14;12.37;;;8.30;;
12625;SDS011;6378;42.684;23.372;2023-12-04T05:44:40;11.83;;;8.67;;
12625;SDS011;6378;42.684;23.372;2023-12-04T05:47:05;12.53;;;8.47;;
12625;SDS011;6378;42.684;23.372;2023-12-04T05:49:33;12.10;;;7.87;;
12625;SDS011;6378;42.684;23.372;2023-12-04T05:51:58;12.43;;;7.87;;
12625;SDS011;6378;42.684;23.372;2023-12-04T05:54:24;12.70;;;8.00;;
12625;SDS011;6378;42.684;23.372;2023-12-04T05:56:51;11.87;;;8.23;;
12625;SDS011;6378;42.684;23.372;2023-12-04T05:59:17;12.03;;;8.77;;
12625;SDS011;6378;42.684;23.372;2023-12-04T06:01:42;12.80;;;8.93;;
12625;SDS011;6378;42.684;23.372;2023-12-04T06:04:08;11.90;;;8.30;;
12625;SDS011;6378;42.684;23.372;2023-12-04T06:06:33;12.73;;;8.83;;
12625;SDS011;6378;42.684;23.372;2023-12-04T06:09:00;14.00;;;9.27;;
12625;SDS011;6378;42.684;23.372;2023-12-04T06:11:25;12.33;;;9.20;;
12625;SDS011;6378;42.684;23.372;2023-12-04T06:13:51;12.97;;;9.20;;
12625;SDS011;6378;42.684;23.372;2023-12-04T06:16:16;11.73;;;7.30;;
12625;SDS011;6378;42.684;23.372;2023-12-04T06:18:42;14.77;;;8.17;;
12625;SDS011;6378;42.684;23.372;2023-12-04T06:21:07;13.07;;;8.93;;
12625;SDS011;6378;42.684;23.372;2023-12-04T06:23:33;13.37;;;9.00;;
12625;SDS011;6378;42.684;23.372;2023-12-04T06:25:59;12.00;;;8.23;;
12625;SDS011;6378;42.684;23.372;2023-12-04T06:28:25;14.73;;;9.93;;
12625;SDS011;6378;42.684;23.372;2023-12-04T06:30:50;10.67;;;8.73;;
12625;SDS011;6378;42.684;23.372;2023-12-04T06:33:16;20.13;;;12.57;;
12625;SDS011;6378;42.684;23.372;2023-12-04T06:35:43;15.23;;;11.70;;
12625;SDS011;6378;42.684;23.372;2023-12-04T06:38:09;14.97;;;10.40;;
12625;SDS011;6378;42.684;23.372;2023-12-04T06:40:39;10.03;;;7.53;;
12625;SDS011;6378;42.684;23.372;2023-12-04T06:43:05;13.33;;;9.37;;
12625;SDS011;6378;42.684;23.372;2023-12-04T06:45:32;10.03;;;7.93;;
12625;SDS011;6378;42.684;23.372;2023-12-04T06:47:58;12.97;;;9.70;;
12625;SDS011;6378;42.684;23.372;2023-12-04T06:50:24;14.27;;;9.83;;
12625;SDS011;6378;42.684;23.372;2023-12-04T06:52:49;8.73;;;6.70;;
12625;SDS011;6378;42.684;23.372;2023-12-04T06:55:15;14.20;;;9.33;;
12625;SDS011;6378;42.684;23.372;2023-12-04T06:57:40;7.90;;;6.30;;
12625;SDS011;6378;42.684;23.372;2023-12-04T07:00:06;14.70;;;8.80;;
12625;SDS011;6378;42.684;23.372;2023-12-04T07:02:33;6.20;;;5.07;;
12625;SDS011;6378;42.684;23.372;2023-12-04T07:04:58;13.00;;;8.53;;
12625;SDS011;6378;42.684;23.372;2023-12-04T07:07:24;13.00;;;8.90;;
12625;SDS011;6378;42.684;23.372;2023-12-04T07:09:50;13.63;;;8.40;;
12625;SDS011;6378;42.684;23.372;2023-12-04T07:12:16;8.50;;;6.27;;
12625;SDS011;6378;42.684;23.372;2023-12-04T07:14:41;11.50;;;7.90;;
12625;SDS011;6378;42.684;23.372;2023-12-04T07:17:07;8.07;;;6.33;;
12625;SDS011;6378;42.684;23.372;2023-12-04T07:19:32;11.97;;;8.40;;
12625;SDS011;6378;42.684;23.372;2023-12-04T07:21:58;10.20;;;7.43;;
12625;SDS011;6378;42.684;23.372;2023-12-04T07:24:23;10.37;;;7.57;;
12625;SDS011;6378;42.684;23.372;2023-12-04T07:26:49;11.73;;;7.27;;
12625;SDS011;6378;42.684;23.372;2023-12-04T07:29:15;11.77;;;7.73;;
12625;SDS011;6378;42.684;23.372;2023-12-04T07:31:41;8.47;;;6.70;;
12625;SDS011;6378;42.684;23.372;2023-12-04T07:34:07;10.57;;;6.77;;
12625;SDS011;6378;42.684;23.372;2023-12-04T07:36:32;13.23;;;8.40;;
12625;SDS011;6378;42.684;23.372;2023-12-04T07:38:58;8.47;;;6.07;;
12625;SDS011;6378;42.684;23.372;2023-12-04T07:41:23;7.20;;;5.70;;
12625;SDS011;6378;42.684;23.372;2023-12-04T07:43:49;11.90;;;7.93;;
12625;SDS011;6378;42.684;23.372;2023-12-04T07:46:14;8.43;;;6.53;;
12625;SDS011;6378;42.684;23.372;2023-12-04T07:48:40;10.50;;;7.17;;
12625;SDS011;6378;42.684;23.372;2023-12-04T07:51:06;6.87;;;6.17;;
12625;SDS011;6378;42.684;23.372;2023-12-04T07:53:32;11.27;;;7.53;;
12625;SDS011;6378;42.684;23.372;2023-12-04T07:56:00;9.10;;;6.53;;
12625;SDS011;6378;42.684;23.372;2023-12-04T07:58:28;7.37;;;5.83;;
12625;SDS011;6378;42.684;23.372;2023-12-04T08:00:53;10.10;;;7.87;;
12625;SDS011;6378;42.684;23.372;2023-12-04T08:03:19;17.83;;;12.80;;
12625;SDS011;6378;42.684;23.372;2023-12-04T08:05:44;9.80;;;6.93;;
12625;SDS011;6378;42.684;23.372;2023-12-04T08:08:10;7.63;;;6.03;;
12625;SDS011;6378;42.684;23.372;2023-12-04T08:10:35;10.10;;;7.30;;
12625;SDS011;6378;42.684;23.372;2023-12-04T08:13:01;6.60;;;5.60;;
12625;SDS011;6378;42.684;23.372;2023-12-04T08:15:26;9.13;;;6.70;;
12625;SDS011;6378;42.684;23.372;2023-12-04T08:17:52;7.43;;;5.70;;
12625;SDS011;6378;42.684;23.372;2023-12-04T08:20:17;9.43;;;6.47;;
12625;SDS011;6378;42.684;23.372;2023-12-04T08:22:47;6.97;;;6.03;;
12625;SDS011;6378;42.684;23.372;2023-12-04T08:25:12;9.27;;;6.70;;
12625;SDS011;6378;42.684;23.372;2023-12-04T08:27:38;6.20;;;5.60;;
12625;SDS011;6378;42.684;23.372;2023-12-04T08:30:04;10.33;;;7.43;;
12625;SDS011;6378;42.684;23.372;2023-12-04T08:32:30;5.90;;;5.07;;
12625;SDS011;6378;42.684;23.372;2023-12-04T08:34:55;10.20;;;6.97;;
12625;SDS011;6378;42.684;23.372;2023-12-04T08:37:21;7.03;;;5.90;;
12625;SDS011;6378;42.684;23.372;2023-12-04T08:39:46;8.77;;;7.17;;
12625;SDS011;6378;42.684;23.372;2023-12-04T08:42:12;6.87;;;5.60;;
12625;SDS011;6378;42.684;23.372;2023-12-04T08:44:38;10.07;;;7.00;;
12625;SDS011;6378;42.684;23.372;2023-12-04T08:47:04;10.37;;;6.77;;
12625;SDS011;6378;42.684;23.372;2023-12-04T08:49:30;10.67;;;6.90;;
12625;SDS011;6378;42.684;23.372;2023-12-04T08:51:56;8.30;;;5.80;;
12625;SDS011;6378;42.684;23.372;2023-12-04T08:54:21;11.50;;;7.50;;
12625;SDS011;6378;42.684;23.372;2023-12-04T08:56:46;8.57;;;6.37;;
12625;SDS011;6378;42.684;23.372;2023-12-04T08:59:12;17.83;;;11.70;;
12625;SDS011;6378;42.684;23.372;2023-12-04T09:01:38;8.43;;;6.40;;
12625;SDS011;6378;42.684;23.372;2023-12-04T09:04:04;9.63;;;7.20;;
12625;SDS011;6378;42.684;23.372;2023-12-04T09:06:30;8.47;;;5.90;;
12625;SDS011;6378;42.684;23.372;2023-12-04T09:08:55;9.87;;;6.83;;
12625;SDS011;6378;42.684;23.372;2023-12-04T09:11:21;6.10;;;5.50;;
12625;SDS011;6378;42.684;23.372;2023-12-04T09:13:46;12.60;;;7.37;;
12625;SDS011;6378;42.684;23.372;2023-12-04T09:16:11;7.83;;;5.43;;
12625;SDS011;6378;42.684;23.372;2023-12-04T09:18:38;8.77;;;6.90;;
12625;SDS011;6378;42.684;23.372;2023-12-04T09:21:04;6.77;;;5.70;;
12625;SDS011;6378;42.684;23.372;2023-12-04T09:23:30;14.80;;;7.50;;
12625;SDS011;6378;42.684;23.372;2023-12-04T09:25:55;8.80;;;6.40;;
12625;SDS011;6378;42.684;23.372;2023-12-04T09:28:21;14.60;;;6.97;;
12625;SDS011;6378;42.684;23.372;2023-12-04T09:30:47;14.63;;;7.80;;
12625;SDS011;6378;42.684;23.372;2023-12-04T09:33:13;11.17;;;6.90;;
12625;SDS011;6378;42.684;23.372;2023-12-04T09:35:38;8.50;;;6.03;;
12625;SDS011;6378;42.684;23.372;2023-12-04T09:38:04;8.27;;;6.73;;
12625;SDS011;6378;42.684;23.372;2023-12-04T09:40:29;8.50;;;6.77;;
12625;SDS011;6378;42.684;23.372;2023-12-04T09:42:55;10.63;;;8.00;;
12625;SDS011;6378;42.684;23.372;2023-12-04T09:45:21;12.97;;;8.90;;
12625;SDS011;6378;42.684;23.372;2023-12-04T09:47:48;10.67;;;8.00;;
12625;SDS011;6378;42.684;23.372;2023-12-04T09:50:14;11.00;;;7.83;;
12625;SDS011;6378;42.684;23.372;2023-12-04T09:52:42;10.00;;;7.97;;
12625;SDS011;6378;42.684;23.372;2023-12-04T09:55:08;10.00;;;7.83;;
12625;SDS011;6378;42.684;23.372;2023-12-04T09:57:33;11.60;;;7.40;;
12625;SDS011;6378;42.684;23.372;2023-12-04T10:00:00;11.47;;;7.90;;
12625;SDS011;6378;42.684;23.372;2023-12-04T10:02:27;9.47;;;7.57;;
12625;SDS011;6378;42.684;23.372;2023-12-04T10:04:53;16.10;;;8.97;;
12625;SDS011;6378;42.684;23.372;2023-12-04T10:07:19;9.93;;;7.70;;
12625;SDS011;6378;42.684;23.372;2023-12-04T10:09:44;9.93;;;8.07;;
12625;SDS011;6378;42.684;23.372;2023-12-04T10:12:10;11.50;;;8.40;;
12625;SDS011;6378;42.684;23.372;2023-12-04T10:14:36;13.17;;;8.37;;
12625;SDS011;6378;42.684;23.372;2023-12-04T10:17:13;9.73;;;8.03;;
12625;SDS011;6378;42.684;23.372;2023-12-04T10:19:40;10.10;;;8.40;;
12625;SDS011;6378;42.684;23.372;2023-12-04T10:22:05;11.77;;;8.63;;
12625;SDS011;6378;42.684;23.372;2023-12-04T10:24:36;11.10;;;7.87;;
12625;SDS011;6378;42.684;23.372;2023-12-04T10:27:04;13.33;;;7.80;;
12625;SDS011;6378;42.684;23.372;2023-12-04T10:29:42;9.40;;;7.57;;
12625;SDS011;6378;42.684;23.372;2023-12-04T10:32:12;13.20;;;7.80;;
12625;SDS011;6378;42.684;23.372;2023-12-04T10:34:38;9.23;;;7.30;;
12625;SDS011;6378;42.684;23.372;2023-12-04T10:37:07;11.47;;;8.13;;
12625;SDS011;6378;42.684;23.372;2023-12-04T10:39:56;10.37;;;8.00;;
12625;SDS011;6378;42.684;23.372;2023-12-04T10:42:28;12.77;;;8.37;;
12625;SDS011;6378;42.684;23.372;2023-12-04T10:44:58;12.27;;;9.07;;
12625;SDS011;6378;42.684;23.372;2023-12-04T10:47:24;13.07;;;8.53;;
12625;SDS011;6378;42.684;23.372;2023-12-04T10:49:50;15.63;;;9.97;;
12625;SDS011;6378;42.684;23.372;2023-12-04T10:52:17;15.17;;;10.40;;
12625;SDS011;6378;42.684;23.372;2023-12-04T10:54:46;13.97;;;9.30;;
12625;SDS011;6378;42.684;23.372;2023-12-04T10:57:12;16.50;;;12.20;;
12625;SDS011;6378;42.684;23.372;2023-12-04T10:59:54;14.70;;;10.13;;
12625;SDS011;6378;42.684;23.372;2023-12-04T11:02:22;16.93;;;10.37;;
12625;SDS011;6378;42.684;23.372;2023-12-04T11:04:52;21.27;;;11.63;;
12625;SDS011;6378;42.684;23.372;2023-12-04T11:07:27;15.07;;;10.53;;
12625;SDS011;6378;42.684;23.372;2023-12-04T11:09:58;14.80;;;9.93;;
12625;SDS011;6378;42.684;23.372;2023-12-04T11:12:25;18.20;;;11.57;;
12625;SDS011;6378;42.684;23.372;2023-12-04T11:14:56;16.07;;;10.97;;
12625;SDS011;6378;42.684;23.372;2023-12-04T11:17:24;16.70;;;11.67;;
12625;SDS011;6378;42.684;23.372;2023-12-04T11:19:55;18.50;;;12.67;;
12625;SDS011;6378;42.684;23.372;2023-12-04T11:22:25;21.40;;;12.63;;
12625;SDS011;6378;42.684;23.372;2023-12-04T11:24:51;16.50;;;11.33;;
12625;SDS011;6378;42.684;23.372;2023-12-04T11:27:16;16.90;;;11.47;;
12625;SDS011;6378;42.684;23.372;2023-12-04T11:29:43;15.47;;;10.87;;
12625;SDS011;6378;42.684;23.372;2023-12-04T11:32:14;14.33;;;11.23;;
12625;SDS011;6378;42.684;23.372;2023-12-04T11:34:51;16.27;;;10.50;;
12625;SDS011;6378;42.684;23.372;2023-12-04T11:37:19;16.10;;;11.07;;
12625;SDS011;6378;42.684;23.372;2023-12-04T11:39:51;15.27;;;10.63;;
12625;SDS011;6378;42.684;23.372;2023-12-04T11:42:18;17.27;;;11.00;;
12625;SDS011;6378;42.684;23.372;2023-12-04T11:45:08;17.17;;;10.67;;
12625;SDS011;6378;42.684;23.372;2023-12-04T11:50:17;14.60;;;10.23;;
12625;SDS011;6378;42.684;23.372;2023-12-04T11:52:44;16.60;;;10.80;;
12625;SDS011;6378;42.684;23.372;2023-12-04T11:55:10;14.77;;;10.73;;
12625;SDS011;6378;42.684;23.372;2023-12-04T11:57:39;16.07;;;11.50;;
12625;SDS011;6378;42.684;23.372;2023-12-04T12:00:26;21.10;;;13.40;;
12625;SDS011;6378;42.684;23.372;2023-12-04T12:05:22;23.67;;;13.87;;
12625;SDS011;6378;42.684;23.372;2023-12-04T12:07:48;20.57;;;13.77;;
12625;SDS011;6378;42.684;23.372;2023-12-04T12:10:14;19.47;;;13.57;;
12625;SDS011;6378;42.684;23.372;2023-12-04T12:12:41;23.90;;;18.55;;
12625;SDS011;6378;42.684;23.372;2023-12-04T12:15:10;22.27;;;14.13;;
12625;SDS011;6378;42.684;23.372;2023-12-04T12:17:39;21.93;;;14.77;;
12625;SDS011;6378;42.684;23.372;2023-12-04T12:20:06;19.53;;;13.67;;
12625;SDS011;6378;42.684;23.372;2023-12-04T12:22:36;23.07;;;14.17;;
12625;SDS011;6378;42.684;23.372;2023-12-04T12:25:06;19.07;;;12.47;;
12625;SDS011;6378;42.684;23.372;2023-12-04T12:27:33;20.57;;;13.83;;
12625;SDS011;6378;42.684;23.372;2023-12-04T12:29:59;18.97;;;13.10;;
12625;SDS011;6378;42.684;23.372;2023-12-04T12:32:25;21.27;;;13.30;;
12625;SDS011;6378;42.684;23.372;2023-12-04T12:34:52;20.83;;;12.83;;
12625;SDS011;6378;42.684;23.372;2023-12-04T12:37:17;21.60;;;13.27;;
12625;SDS011;6378;42.684;23.372;2023-12-04T12:39:43;21.33;;;14.27;;
12625;SDS011;6378;42.684;23.372;2023-12-04T12:42:09;19.93;;;12.80;;
12625;SDS011;6378;42.684;23.372;2023-12-04T12:44:38;21.53;;;13.17;;
12625;SDS011;6378;42.684;23.372;2023-12-04T12:47:05;20.67;;;14.17;;
12625;SDS011;6378;42.684;23.372;2023-12-04T12:49:32;21.70;;;13.80;;
12625;SDS011;6378;42.684;23.372;2023-12-04T12:51:59;29.53;;;14.03;;
12625;SDS011;6378;42.684;23.372;2023-12-04T12:54:25;18.30;;;14.37;;
12625;SDS011;6378;42.684;23.372;2023-12-04T12:56:50;22.00;;;14.33;;
12625;SDS011;6378;42.684;23.372;2023-12-04T12:59:16;18.93;;;12.23;;
12625;SDS011;6378;42.684;23.372;2023-12-04T13:01:43;20.03;;;13.17;;
12625;SDS011;6378;42.684;23.372;2023-12-04T13:04:08;20.17;;;12.83;;
12625;SDS011;6378;42.684;23.372;2023-12-04T13:06:40;16.43;;;10.33;;
12625;SDS011;6378;42.684;23.372;2023-12-04T13:09:05;18.50;;;11.60;;
12625;SDS011;6378;42.684;23.372;2023-12-04T13:11:31;20.83;;;12.63;;
12625;SDS011;6378;42.684;23.372;2023-12-04T13:13:58;18.07;;;11.97;;
12625;SDS011;6378;42.684;23.372;2023-12-04T13:16:24;16.87;;;11.50;;
12625;SDS011;6378;42.684;23.372;2023-12-04T13:18:49;16.80;;;12.10;;
12625;SDS011;6378;42.684;23.372;2023-12-04T13:21:15;17.83;;;12.40;;
12625;SDS011;6378;42.684;23.372;2023-12-04T13:23:40;16.67;;;10.00;;
12625;SDS011;6378;42.684;23.372;2023-12-04T13:26:06;16.80;;;11.27;;
12625;SDS011;6378;42.684;23.372;2023-12-04T13:28:35;16.63;;;11.17;;
12625;SDS011;6378;42.684;23.372;2023-12-04T13:31:03;19.60;;;11.37;;
12625;SDS011;6378;42.684;23.372;2023-12-04T13:33:29;19.53;;;12.57;;
12625;SDS011;6378;42.684;23.372;2023-12-04T13:35:55;14.50;;;10.93;;
12625;SDS011;6378;42.684;23.372;2023-12-04T13:38:21;16.90;;;11.53;;
12625;SDS011;6378;42.684;23.372;2023-12-04T13:40:46;16.37;;;11.43;;
12625;SDS011;6378;42.684;23.372;2023-12-04T13:43:25;20.13;;;12.63;;
12625;SDS011;6378;42.684;23.372;2023-12-04T13:46:24;34.87;;;17.53;;
12625;SDS011;6378;42.684;23.372;2023-12-04T13:48:49;15.43;;;9.97;;
12625;SDS011;6378;42.684;23.372;2023-12-04T13:51:15;17.70;;;11.50;;
12625;SDS011;6378;42.684;23.372;2023-12-04T13:53:40;21.20;;;12.43;;
12625;SDS011;6378;42.684;23.372;2023-12-04T13:56:10;19.00;;;12.03;;
12625;SDS011;6378;42.684;23.372;2023-12-04T13:58:39;16.07;;;11.10;;
12625;SDS011;6378;42.684;23.372;2023-12-04T14:01:09;20.03;;;11.30;;
12625;SDS011;6378;42.684;23.372;2023-12-04T14:03:42;21.03;;;12.23;;
12625;SDS011;6378;42.684;23.372;2023-12-04T14:06:08;16.83;;;9.83;;
12625;SDS011;6378;42.684;23.372;2023-12-04T14:08:34;16.70;;;10.43;;
12625;SDS011;6378;42.684;23.372;2023-12-04T14:11:01;18.43;;;11.33;;
12625;SDS011;6378;42.684;23.372;2023-12-04T14:13:31;17.00;;;11.17;;
12625;SDS011;6378;42.684;23.372;2023-12-04T14:15:57;16.83;;;10.03;;
12625;SDS011;6378;42.684;23.372;2023-12-04T14:18:23;18.70;;;11.63;;
12625;SDS011;6378;42.684;23.372;2023-12-04T14:20:49;17.67;;;11.63;;
12625;SDS011;6378;42.684;23.372;2023-12-04T14:23:14;20.37;;;11.17;;
12625;SDS011;6378;42.684;23.372;2023-12-04T14:25:41;20.57;;;11.40;;
12625;SDS011;6378;42.684;23.372;2023-12-04T14:28:06;17.63;;;12.30;;
12625;SDS011;6378;42.684;23.372;2023-12-04T14:30:32;18.63;;;11.57;;
12625;SDS011;6378;42.684;23.372;2023-12-04T14:32:58;21.60;;;12.00;;
12625;SDS011;6378;42.684;23.372;2023-12-04T14:35:23;21.80;;;13.73;;